Time;durP1;ratioP1;P1;durP2;ratioP2;P2;SDS_P1;SDS_P2;PMS_P1;PMS_P2;Temp;Humidity;BMP_temperature;BMP_pressure;BME280_temperature;BME280_humidity;BME280_pressure;Samples;Min_cycle;Max_cycle;Signal;HPM_P1;HPM_P2
2021/05/08 00:00:01;;;;;;;1.83;1.70;;;3.50;99.90;;;4.41;100.00;98398.06;5123477;27;20982;-78
2021/05/08 00:02:28;;;;;;;2.27;2.00;;;3.50;99.90;;;4.39;100.00;98406.91;5124695;27;20466;-78
2021/05/08 00:04:57;;;;;;;2.07;1.87;;;3.40;99.90;;;4.56;100.00;98401.03;5126966;27;20468;-78
2021/05/08 00:07:25;;;;;;;2.20;2.00;;;3.60;99.90;;;4.45;100.00;98399.41;5127277;27;20516;-78
2021/05/08 00:09:52;;;;;;;4.50;2.10;;;3.50;99.90;;;4.29;100.00;98396.59;5128552;27;20461;-78
2021/05/08 00:12:20;;;;;;;2.80;2.13;;;3.30;99.90;;;4.42;100.00;98399.69;5122351;27;20452;-78
2021/05/08 00:14:48;;;;;;;5.13;2.17;;;3.50;99.90;;;4.32;100.00;98403.25;5125671;28;20937;-79
2021/05/08 00:17:16;;;;;;;3.33;1.90;;;3.40;99.90;;;4.13;100.00;98403.28;5124843;27;20492;-78
2021/05/08 00:19:44;;;;;;;4.10;2.40;;;3.20;99.90;;;4.12;100.00;98399.88;5123745;27;20462;-78
2021/05/08 00:22:11;;;;;;;3.00;2.10;;;3.20;99.90;;;4.24;100.00;98396.19;5127869;27;20955;-78
2021/05/08 00:24:39;;;;;;;2.77;2.13;;;3.30;99.90;;;4.37;100.00;98391.50;5128513;27;20940;-78
2021/05/08 00:27:06;;;;;;;2.80;2.37;;;3.60;99.90;;;4.28;100.00;98402.72;5124207;27;20459;-78
2021/05/08 00:29:35;;;;;;;4.80;2.60;;;3.40;99.90;;;4.13;100.00;98393.72;5127478;27;20806;-78
2021/05/08 00:32:02;;;;;;;2.27;2.07;;;3.20;99.90;;;4.15;100.00;98386.66;5128614;28;20531;-79
2021/05/08 00:34:31;;;;;;;2.10;1.80;;;3.20;99.90;;;3.98;100.00;98395.13;5123855;27;20467;-78
2021/05/08 00:36:59;;;;;;;4.80;2.40;;;3.00;99.90;;;3.83;100.00;98399.06;5118965;28;20493;-78
2021/05/08 00:39:26;;;;;;;2.60;2.40;;;2.90;99.90;;;3.84;100.00;98392.94;5128676;27;20439;-78
2021/05/08 00:41:54;;;;;;;2.70;1.97;;;2.90;99.90;;;3.89;100.00;98393.34;5127352;27;20493;-78
2021/05/08 00:44:22;;;;;;;2.20;2.00;;;2.90;99.90;;;3.88;100.00;98394.31;5127463;28;20601;-78
2021/05/08 00:46:50;;;;;;;3.00;2.60;;;2.90;99.90;;;3.87;100.00;98384.91;5123706;28;21097;-79
2021/05/08 00:49:19;;;;;;;2.77;2.30;;;3.00;99.90;;;3.78;100.00;98385.75;5126064;27;20857;-78
2021/05/08 00:51:48;;;;;;;3.37;2.23;;;2.80;99.90;;;3.67;100.00;98384.09;5121964;27;20531;-79
2021/05/08 00:54:15;;;;;;;2.20;2.00;;;2.80;99.90;;;3.72;100.00;98386.25;5123852;27;20937;-78
2021/05/08 00:56:44;;;;;;;2.97;1.97;;;2.80;99.90;;;3.60;100.00;98380.41;5125771;28;20521;-78
2021/05/08 00:59:12;;;;;;;2.50;2.30;;;2.60;99.90;;;3.66;100.00;98372.13;5123545;28;20462;-78
2021/05/08 01:01:40;;;;;;;2.63;2.37;;;2.80;99.90;;;3.60;100.00;98367.50;5126737;28;20457;-78
2021/05/08 01:04:08;;;;;;;2.10;1.90;;;2.70;99.90;;;3.58;100.00;98365.97;5117808;28;20464;-78
2021/05/08 01:06:39;;;;;;;2.30;2.10;;;2.70;99.90;;;3.72;100.00;98374.16;5125293;28;20827;-78
2021/05/08 01:09:08;;;;;;;5.20;2.03;;;2.80;99.90;;;3.65;100.00;98365.31;5127357;27;20463;-78
2021/05/08 01:11:37;;;;;;;3.43;2.43;;;2.80;99.90;;;3.54;100.00;98361.06;5122032;28;20518;-78
2021/05/08 01:14:06;;;;;;;2.30;2.10;;;2.70;99.90;;;3.51;100.00;98366.53;5120162;27;21022;-78
2021/05/08 01:16:34;;;;;;;2.13;1.93;;;2.60;99.90;;;3.41;100.00;98364.88;5127763;27;20496;-78
2021/05/08 01:19:02;;;;;;;7.27;2.47;;;2.50;99.90;;;3.13;100.00;98363.06;5129160;27;20461;-79
2021/05/08 01:21:30;;;;;;;3.43;2.40;;;2.20;99.90;;;3.17;100.00;98367.00;5121076;27;20461;-78
2021/05/08 01:23:58;;;;;;;2.40;2.20;;;2.20;99.90;;;3.15;100.00;98364.56;5127518;27;20474;-78
2021/05/08 01:26:25;;;;;;;2.20;2.00;;;2.20;99.90;;;3.23;100.00;98361.34;5127692;27;20466;-78
2021/05/08 01:28:53;;;;;;;2.70;2.23;;;2.30;99.90;;;3.18;100.00;98364.31;5125406;27;20461;-79
2021/05/08 01:31:21;;;;;;;2.60;2.40;;;2.30;99.90;;;3.10;100.00;98371.06;5123343;27;20827;-79
2021/05/08 01:33:48;;;;;;;2.13;1.93;;;2.20;99.90;;;3.05;100.00;98358.56;5127327;27;20506;-78
2021/05/08 01:36:16;;;;;;;3.50;2.40;;;2.20;99.90;;;3.15;100.00;98369.75;5130323;27;20555;-78
2021/05/08 01:38:44;;;;;;;3.73;2.63;;;2.30;99.90;;;3.02;100.00;98363.97;5122966;27;20446;-78
2021/05/08 01:41:12;;;;;;;2.80;2.10;;;2.10;99.90;;;3.08;100.00;98368.63;5125031;27;20462;-78
2021/05/08 01:43:39;;;;;;;3.67;2.30;;;2.20;99.90;;;3.03;100.00;98366.44;5123717;27;20492;-78
2021/05/08 01:46:07;;;;;;;3.87;2.17;;;2.10;99.90;;;2.84;100.00;98365.56;5120030;27;20454;-78
2021/05/08 01:48:35;;;;;;;3.93;2.10;;;1.90;99.90;;;2.86;100.00;98361.09;5123811;27;20874;-78
2021/05/08 01:51:03;;;;;;;2.30;1.87;;;1.90;99.90;;;3.00;100.00;98350.38;5124089;27;20681;-78
2021/05/08 01:53:30;;;;;;;3.20;2.37;;;2.10;99.90;;;3.01;100.00;98357.19;5129087;27;20461;-78
2021/05/08 01:55:59;;;;;;;2.40;2.20;;;2.10;99.90;;;2.86;100.00;98358.50;5132155;27;20441;-78
2021/05/08 01:58:31;;;;;;;2.90;2.10;;;1.90;99.90;;;2.93;100.00;98362.19;5126137;27;20484;-78
2021/05/08 02:00:58;;;;;;;2.93;2.50;;;2.00;99.90;;;2.93;100.00;98354.44;5127976;27;20457;-78
2021/05/08 02:03:26;;;;;;;6.70;2.30;;;2.00;99.90;;;2.88;100.00;98361.78;5129711;27;20452;-78
2021/05/08 02:05:54;;;;;;;3.20;2.10;;;2.00;99.90;;;2.82;100.00;98357.13;5125513;27;20468;-78
2021/05/08 02:08:22;;;;;;;2.50;2.30;;;1.90;99.90;;;2.91;100.00;98356.34;5129729;27;20987;-78
2021/05/08 02:10:50;;;;;;;4.90;2.73;;;2.00;99.90;;;2.99;100.00;98359.06;5124686;27;20458;-78
2021/05/08 02:13:18;;;;;;;2.83;2.53;;;2.10;99.90;;;2.80;100.00;98356.44;5122325;27;20460;-78
2021/05/08 02:15:46;;;;;;;3.27;2.70;;;1.90;99.90;;;2.73;100.00;98352.75;5125730;27;20484;-78
2021/05/08 02:18:14;;;;;;;3.70;2.77;;;1.80;99.90;;;2.85;100.00;98346.53;5128051;27;20473;-78
2021/05/08 02:20:44;;;;;;;3.23;2.27;;;2.00;99.90;;;2.78;100.00;98351.41;5128064;27;20510;-78
2021/05/08 02:23:14;;;;;;;4.17;2.13;;;1.90;99.90;;;2.78;100.00;98351.41;5127766;27;20497;-78
2021/05/08 02:25:43;;;;;;;3.03;1.90;;;1.90;99.90;;;2.66;100.00;98361.97;5128715;27;20488;-78
2021/05/08 02:28:11;;;;;;;3.83;2.40;;;1.70;99.90;;;2.66;100.00;98356.81;5128675;27;20860;-79
2021/05/08 02:30:42;;;;;;;3.37;2.40;;;1.70;99.90;;;2.86;100.00;98359.31;5129972;27;20453;-78
2021/05/08 02:33:10;;;;;;;2.50;2.30;;;2.00;99.90;;;2.85;100.00;98362.03;5129316;27;20457;-78
2021/05/08 02:35:38;;;;;;;2.60;2.40;;;1.90;99.90;;;2.73;100.00;98352.75;5129088;27;20449;-78
2021/05/08 02:38:06;;;;;;;4.10;2.43;;;1.90;99.90;;;2.73;100.00;98358.72;5129424;27;21045;-78
2021/05/08 02:40:37;;;;;;;3.47;2.60;;;1.80;99.90;;;2.84;100.00;98361.22;5130765;27;20589;-78
2021/05/08 02:43:08;;;;;;;2.37;2.03;;;2.00;99.90;;;2.82;100.00;98357.13;5126748;27;20856;-78
2021/05/08 02:45:36;;;;;;;2.20;2.00;;;1.90;99.90;;;2.67;100.00;98355.84;5127864;27;20465;-78
2021/05/08 02:48:05;;;;;;;2.40;2.20;;;1.70;99.90;;;2.51;100.00;98359.72;5127085;27;20457;-79
2021/05/08 02:50:33;;;;;;;4.13;2.20;;;1.60;99.90;;;2.59;100.00;98351.34;5127621;27;20488;-78
2021/05/08 02:53:00;;;;;;;2.27;2.03;;;1.70;99.90;;;2.64;100.00;98353.53;5126494;27;20461;-78
2021/05/08 02:55:28;;;;;;;3.07;2.77;;;1.70;99.90;;;2.58;100.00;98354.03;5126736;27;20453;-78
2021/05/08 02:58:01;;;;;;;2.30;2.10;;;1.60;99.90;;;2.47;100.00;98353.19;5128632;27;20500;-78
2021/05/08 03:00:29;;;;;;;2.17;1.97;;;1.50;99.90;;;2.50;100.00;98352.09;5129954;27;20512;-78
2021/05/08 03:02:57;;;;;;;2.87;2.20;;;1.60;99.90;;;2.32;100.00;98358.81;5129414;27;20454;-78
2021/05/08 03:05:25;;;;;;;3.20;2.17;;;1.40;99.90;;;2.36;100.00;98363.56;5127170;27;20464;-78
2021/05/08 03:07:53;;;;;;;3.00;2.20;;;1.50;99.90;;;2.50;100.00;98359.84;5129892;27;20446;-78
2021/05/08 03:10:20;;;;;;;3.40;2.30;;;1.60;99.90;;;2.48;100.00;98364.31;5127365;27;21076;-78
2021/05/08 03:12:48;;;;;;;3.33;1.90;;;1.50;99.90;;;2.43;100.00;98351.78;5121590;27;20933;-78
2021/05/08 03:15:16;;;;;;;2.60;2.10;;;1.50;99.90;;;2.25;100.00;98347.38;5126053;27;20507;-78
2021/05/08 03:17:43;;;;;;;5.90;2.50;;;1.30;99.90;;;2.33;100.00;98345.78;5126426;27;20554;-78
2021/05/08 03:20:13;;;;;;;2.00;1.80;;;1.40;99.90;;;2.24;100.00;98338.81;5128648;27;21027;-78
2021/05/08 03:22:42;;;;;;;4.40;2.10;;;1.30;99.90;;;2.10;100.00;98336.56;5128648;27;20477;-78
2021/05/08 03:25:11;;;;;;;2.63;2.00;;;1.20;99.90;;;2.14;100.00;98327.63;5128215;27;20464;-78
2021/05/08 03:27:38;;;;;;;2.57;2.20;;;1.20;99.90;;;2.24;100.00;98332.84;5129224;27;20460;-78
2021/05/08 03:30:08;;;;;;;3.30;2.17;;;1.30;99.90;;;2.34;100.00;98321.63;5126079;27;20460;-78
2021/05/08 03:32:35;;;;;;;2.97;2.10;;;1.40;99.90;;;2.41;100.00;98322.75;5125366;27;20502;-78
2021/05/08 03:35:04;;;;;;;3.73;2.20;;;1.50;99.90;;;2.34;100.00;98326.78;5125554;27;20862;-78
2021/05/08 03:37:32;;;;;;;2.30;2.10;;;1.40;99.90;;;2.36;100.00;98327.44;5124068;27;20544;-78
2021/05/08 03:40:00;;;;;;;3.00;2.13;;;1.40;99.90;;;2.13;100.00;98318.25;5128608;27;20442;-78
2021/05/08 03:42:28;;;;;;;9.90;3.53;;;1.20;99.90;;;2.17;100.00;98322.22;5129768;27;20457;-80
2021/05/08 03:44:56;;;;;;;3.60;2.27;;;1.30;99.90;;;2.18;100.00;98325.63;5123861;27;20484;-79
2021/05/08 03:47:23;;;;;;;2.30;1.93;;;1.30;99.90;;;2.29;100.00;98323.75;5127384;27;20472;-78
2021/05/08 03:49:52;;;;;;;2.57;2.37;;;1.40;99.90;;;2.29;100.00;98322.97;5126591;27;20465;-79
2021/05/08 03:52:20;;;;;;;6.57;3.00;;;1.40;99.90;;;2.25;100.00;98327.56;5126616;27;20496;-79
2021/05/08 03:54:47;;;;;;;2.77;2.23;;;1.40;99.90;;;2.27;100.00;98330.81;5124065;27;20457;-79
2021/05/08 03:57:16;;;;;;;4.97;2.70;;;1.50;99.90;;;2.16;100.00;98327.47;5124210;27;20506;-79
2021/05/08 03:59:44;;;;;;;2.23;2.07;;;1.30;99.90;;;2.12;100.00;98331.28;5129678;27;20805;-79
2021/05/08 04:02:11;;;;;;;2.73;2.40;;;1.20;99.90;;;2.06;100.00;98324.84;5129487;27;20449;-78
2021/05/08 04:04:39;;;;;;;3.83;2.10;;;1.20;99.90;;;2.11;100.00;98320.16;5129073;27;20448;-79
2021/05/08 04:07:06;;;;;;;2.43;2.23;;;1.20;99.90;;;2.02;100.00;98313.16;5129747;27;20442;-78
2021/05/08 04:09:34;;;;;;;3.30;2.50;;;1.10;99.90;;;1.99;100.00;98324.53;5125567;27;20469;-79
2021/05/08 04:12:01;;;;;;;5.00;2.47;;;1.10;99.90;;;1.94;100.00;98323.31;5124002;27;20461;-79
2021/05/08 04:14:30;;;;;;;3.50;2.63;;;1.00;99.90;;;1.89;100.00;98325.44;5121344;27;20846;-79
2021/05/08 04:16:57;;;;;;;2.33;2.13;;;1.00;99.90;;;1.95;100.00;98324.91;5127420;27;20561;-79
2021/05/08 04:19:25;;;;;;;2.97;2.57;;;1.10;99.90;;;1.94;100.00;98318.94;5129676;27;20726;-79
2021/05/08 04:21:52;;;;;;;5.20;2.73;;;1.00;99.90;;;1.90;100.00;98321.91;5129095;27;20452;-79
2021/05/08 04:24:20;;;;;;;2.60;2.37;;;1.00;99.90;;;1.93;100.00;98324.25;5129538;27;20453;-77
2021/05/08 04:26:47;;;;;;;6.40;2.47;;;1.00;99.90;;;1.96;100.00;98326.56;5120900;27;20470;-80
2021/05/08 04:29:14;;;;;;;3.87;2.30;;;1.10;99.90;;;1.93;100.00;98330.22;5126238;28;20448;-77
2021/05/08 04:31:43;;;;;;;4.03;2.80;;;1.00;99.90;;;1.98;100.00;98334.97;5130229;27;20496;-77
2021/05/08 04:34:11;;;;;;;26.20;11.03;;;1.10;99.90;;;2.13;100.00;98338.88;5122943;28;20922;-76
2021/05/08 04:36:38;;;;;;;2.33;2.10;;;1.30;99.90;;;2.10;100.00;98328.81;5128285;27;20487;-77
2021/05/08 04:39:06;;;;;;;7.30;2.43;;;1.30;99.90;;;2.04;100.00;98337.06;5130967;27;20518;-77
2021/05/08 04:41:34;;;;;;;2.50;2.30;;;1.10;99.90;;;2.00;100.00;98338.25;5122567;28;20490;-77
2021/05/08 04:44:01;;;;;;;2.47;2.27;;;1.10;99.90;;;1.98;100.00;98329.81;5123456;28;20473;-77
2021/05/08 04:46:29;;;;;;;2.40;2.20;;;1.10;99.90;;;2.03;100.00;98338.00;5132149;27;20441;-77
2021/05/08 04:48:57;;;;;;;2.50;2.30;;;1.20;99.90;;;2.09;100.00;98337.50;5127724;27;20917;-77
2021/05/08 04:51:25;;;;;;;2.30;2.10;;;1.20;99.90;;;2.12;100.00;98334.66;5127193;27;20506;-77
2021/05/08 04:53:53;;;;;;;5.13;2.60;;;1.20;99.90;;;2.09;100.00;98337.50;5128043;27;20437;-77
2021/05/08 04:56:23;;;;;;;2.80;2.50;;;1.20;99.90;;;2.06;100.00;98330.00;5123628;27;20440;-77
2021/05/08 04:58:50;;;;;;;6.20;2.70;;;1.10;99.90;;;2.02;100.00;98323.47;5135393;27;20450;-77
2021/05/08 05:01:18;;;;;;;3.37;2.60;;;1.10;99.90;;;2.06;100.00;98324.03;5131069;27;20509;-77
2021/05/08 05:03:45;;;;;;;3.80;2.40;;;1.10;99.90;;;2.09;100.00;98322.03;5134580;27;20498;-77
2021/05/08 05:06:14;;;;;;;3.70;2.80;;;1.20;99.90;;;2.13;100.00;98328.56;5133075;27;20448;-77
2021/05/08 05:08:41;;;;;;;2.80;2.50;;;1.20;99.90;;;2.12;100.00;98331.28;5135495;27;20448;-77
2021/05/08 05:11:09;;;;;;;3.57;2.43;;;1.20;99.90;;;2.19;100.00;98328.03;5133402;27;20448;-77
2021/05/08 05:13:36;;;;;;;3.33;2.37;;;1.30;99.90;;;2.22;100.00;98324.41;5135199;27;20448;-77
2021/05/08 05:16:04;;;;;;;3.33;3.03;;;1.30;99.90;;;2.39;100.00;98327.22;5135239;27;20449;-77
2021/05/08 05:18:32;;;;;;;3.70;2.90;;;1.50;99.90;;;2.56;100.00;98330.97;5135389;27;20565;-77
2021/05/08 05:21:00;;;;;;;3.57;3.27;;;1.70;99.90;;;2.69;100.00;98325.56;5133405;27;20476;-77
2021/05/08 05:23:28;;;;;;;2.37;2.17;;;1.90;99.90;;;2.78;100.00;98317.84;5135085;27;20476;-77
2021/05/08 05:25:57;;;;;;;4.27;3.03;;;2.00;99.90;;;2.89;100.00;98320.31;5124769;27;20457;-77
2021/05/08 05:28:28;;;;;;;2.43;2.10;;;2.10;99.90;;;2.95;100.00;98326.75;5134906;27;20815;-77
2021/05/08 05:30:58;;;;;;;3.33;2.30;;;2.20;99.90;;;3.05;100.00;98325.78;5134983;27;20442;-77
2021/05/08 05:33:26;;;;;;;3.50;2.40;;;2.20;99.90;;;3.10;100.00;98320.22;5134819;27;20434;-77
2021/05/08 05:35:56;;;;;;;2.57;2.37;;;2.30;99.90;;;3.20;100.00;98330.56;5130795;27;20483;-78
2021/05/08 05:38:25;;;;;;;2.40;2.20;;;2.40;99.90;;;3.15;100.00;98340.50;5131339;27;20497;-77
2021/05/08 05:40:54;;;;;;;2.53;2.33;;;2.30;99.90;;;3.13;100.00;98345.78;5132594;27;20440;-77
2021/05/08 05:43:22;;;;;;;2.83;2.43;;;2.30;99.90;;;3.18;100.00;98330.72;5131910;27;20809;-77
2021/05/08 05:45:50;;;;;;;2.87;2.63;;;2.30;99.90;;;3.31;100.00;98328.69;5134670;27;20956;-77
2021/05/08 05:48:17;;;;;;;3.40;2.50;;;2.50;99.90;;;3.40;100.00;98325.28;5134484;27;20449;-78
2021/05/08 05:50:45;;;;;;;5.03;2.03;;;2.60;99.90;;;3.48;100.00;98322.03;5134022;27;20455;-78
2021/05/08 05:53:15;;;;;;;3.00;2.20;;;2.60;99.90;;;3.62;100.00;98331.16;5125706;27;20489;-78
2021/05/08 05:55:43;;;;;;;3.67;2.53;;;2.80;99.90;;;3.66;100.00;98323.00;5129504;27;20459;-78
2021/05/08 05:58:12;;;;;;;2.20;2.00;;;2.80;99.90;;;3.75;100.00;98316.97;5134127;27;20498;-78
2021/05/08 06:00:39;;;;;;;4.20;2.67;;;3.00;99.90;;;3.82;100.00;98309.50;5127528;27;20471;-78
2021/05/08 06:03:07;;;;;;;3.33;2.63;;;3.00;99.90;;;3.90;100.00;98313.03;5123038;27;20456;-78
2021/05/08 06:05:34;;;;;;;3.60;2.20;;;3.20;99.90;;;3.96;100.00;98311.66;5133877;27;20443;-78
2021/05/08 06:08:02;;;;;;;3.07;2.07;;;3.20;99.90;;;4.05;100.00;98305.66;5128208;27;20956;-78
2021/05/08 06:10:29;;;;;;;4.07;2.83;;;3.30;99.90;;;4.13;100.00;98303.16;5126697;27;20440;-78
2021/05/08 06:12:57;;;;;;;4.80;2.57;;;3.40;99.90;;;4.22;100.00;98299.75;5131087;27;20505;-77
2021/05/08 06:15:25;;;;;;;3.60;2.40;;;3.40;99.90;;;4.33;100.00;98281.47;5130517;27;20452;-78
2021/05/08 06:17:53;;;;;;;6.10;2.90;;;3.50;99.90;;;4.42;100.00;98285.78;5134085;27;20502;-78
2021/05/08 06:20:20;;;;;;;6.77;2.67;;;3.70;99.90;;;4.49;100.00;98284.25;5133928;27;20444;-78
2021/05/08 06:22:48;;;;;;;2.87;2.53;;;3.70;99.90;;;4.58;100.00;98285.97;5133699;27;20516;-78
2021/05/08 06:25:15;;;;;;;2.47;2.27;;;3.80;99.90;;;4.71;100.00;98290.03;5120076;27;20445;-78
2021/05/08 06:27:43;;;;;;;5.30;2.70;;;4.00;99.90;;;4.82;100.00;98282.06;5126814;27;20457;-78
2021/05/08 06:30:12;;;;;;;3.43;2.43;;;4.10;99.90;;;4.93;100.00;98274.88;5132164;27;20445;-78
2021/05/08 06:32:40;;;;;;;2.87;2.20;;;4.20;99.90;;;5.02;100.00;98279.22;5131861;27;20453;-78
2021/05/08 06:35:09;;;;;;;5.60;3.00;;;4.30;99.90;;;5.08;100.00;98280.38;5130696;27;20464;-78
2021/05/08 06:37:36;;;;;;;5.37;3.00;;;4.40;99.90;;;5.18;100.00;98280.31;5131593;27;20489;-78
2021/05/08 06:40:05;;;;;;;3.20;2.47;;;4.60;99.90;;;5.28;100.00;98284.47;5133219;27;20449;-78
2021/05/08 06:42:33;;;;;;;3.87;2.60;;;4.60;99.90;;;5.37;100.00;98283.59;5120446;27;20911;-78
2021/05/08 06:45:00;;;;;;;3.23;2.23;;;4.70;99.90;;;5.47;100.00;98279.16;5128378;27;21007;-78
2021/05/08 06:47:28;;;;;;;3.57;2.13;;;4.80;99.90;;;5.57;100.00;98279.06;5133434;27;20446;-78
2021/05/08 06:49:58;;;;;;;2.60;2.20;;;4.80;99.90;;;5.68;100.00;98286.63;5133147;27;20558;-78
2021/05/08 06:52:25;;;;;;;11.33;2.63;;;5.00;99.90;;;5.76;100.00;98278.09;5121359;27;20459;-78
2021/05/08 06:54:53;;;;;;;4.30;2.80;;;5.10;99.90;;;5.85;100.00;98285.78;5121486;27;20467;-78
2021/05/08 06:57:20;;;;;;;4.80;2.60;;;5.20;99.90;;;5.94;100.00;98286.66;5132786;27;20546;-78
2021/05/08 06:59:49;;;;;;;5.03;2.53;;;5.20;99.90;;;6.04;100.00;98279.59;5128417;27;20491;-78
2021/05/08 07:02:16;;;;;;;6.50;2.67;;;5.40;99.90;;;6.11;100.00;98282.41;5132748;27;20448;-78
2021/05/08 07:04:44;;;;;;;3.30;2.53;;;5.60;99.90;;;6.20;100.00;98278.88;5132648;27;20502;-78
2021/05/08 07:07:12;;;;;;;2.30;2.10;;;5.70;99.90;;;6.28;100.00;98274.53;5132714;27;20444;-79
2021/05/08 07:09:41;;;;;;;5.97;2.87;;;5.70;99.90;;;6.37;100.00;98278.81;5131117;27;20438;-78
2021/05/08 07:12:10;;;;;;;4.20;2.33;;;5.80;99.90;;;6.48;100.00;98283.75;5129118;27;20455;-79
2021/05/08 07:14:38;;;;;;;4.87;2.67;;;6.00;99.90;;;6.56;100.00;98275.97;5131602;27;20448;-78
2021/05/08 07:17:06;;;;;;;4.57;2.80;;;6.00;99.90;;;6.66;100.00;98277.66;5127537;27;20925;-79
2021/05/08 07:19:33;;;;;;;4.13;2.90;;;6.20;99.90;;;6.75;100.00;98280.13;5113752;27;20466;-78
2021/05/08 07:22:02;;;;;;;2.97;2.67;;;6.20;99.90;;;6.87;100.00;98283.25;5131050;27;21033;-78
2021/05/08 07:24:31;;;;;;;3.30;2.70;;;6.40;99.90;;;6.97;100.00;98276.13;5125228;27;20928;-78
2021/05/08 07:26:58;;;;;;;5.27;2.90;;;6.50;99.90;;;7.08;100.00;98278.41;5132721;27;20440;-79
2021/05/08 07:29:26;;;;;;;6.63;2.63;;;6.60;99.90;;;7.18;100.00;98273.91;5132774;27;20548;-79
2021/05/08 07:31:54;;;;;;;6.07;2.60;;;6.70;99.90;;;7.30;100.00;98264.81;5131948;27;20449;-78
2021/05/08 07:34:21;;;;;;;3.50;2.53;;;6.80;99.90;;;7.43;100.00;98252.13;5130607;27;20502;-78
2021/05/08 07:36:49;;;;;;;7.40;2.63;;;7.00;99.90;;;7.55;100.00;98248.25;5129846;27;20942;-78
2021/05/08 07:39:17;;;;;;;7.60;3.20;;;7.10;99.90;;;7.69;100.00;98251.16;5132695;27;20445;-79
2021/05/08 07:41:45;;;;;;;3.70;2.70;;;7.30;99.90;;;7.82;100.00;98249.69;5132297;27;20505;-79
2021/05/08 07:44:13;;;;;;;4.27;3.10;;;7.40;99.90;;;7.96;99.96;98250.81;5132350;27;20844;-78
2021/05/08 07:46:41;;;;;;;4.50;2.70;;;7.50;99.90;;;8.13;99.41;98244.59;5132315;27;20887;-79
2021/05/08 07:49:09;;;;;;;6.10;2.80;;;7.70;99.90;;;8.26;98.25;98239.66;5130322;27;20473;-79
2021/05/08 07:51:37;;;;;;;4.00;2.97;;;7.80;99.90;;;8.38;96.59;98238.38;5128287;27;20437;-79
2021/05/08 07:54:06;;;;;;;5.30;2.33;;;8.00;99.90;;;8.49;95.66;98235.41;5132215;27;20910;-79
2021/05/08 07:56:35;;;;;;;4.93;2.83;;;8.10;99.90;;;8.61;92.74;98237.63;5131552;27;20445;-78
2021/05/08 07:59:05;;;;;;;3.87;2.27;;;8.20;99.90;;;8.72;92.13;98237.25;5128831;27;20489;-78
2021/05/08 08:01:33;;;;;;;3.23;2.47;;;8.30;99.90;;;8.84;91.45;98230.69;5111757;28;20442;-79
2021/05/08 08:04:00;;;;;;;7.50;2.33;;;8.40;99.90;;;8.93;91.49;98216.59;5128802;27;20442;-78
2021/05/08 08:06:28;;;;;;;2.63;2.13;;;8.50;99.90;;;9.03;91.90;98219.78;5132116;27;20933;-78
2021/05/08 08:08:56;;;;;;;3.67;2.20;;;8.60;99.90;;;9.13;92.00;98219.59;5130410;27;20457;-79
2021/05/08 08:11:24;;;;;;;4.70;2.17;;;8.70;99.90;;;9.22;91.94;98218.53;5131672;27;20449;-78
2021/05/08 08:13:51;;;;;;;4.57;2.37;;;8.80;99.90;;;9.30;91.17;98214.06;5131759;27;20450;-78
2021/05/08 08:16:19;;;;;;;7.30;2.83;;;8.90;99.90;;;9.38;90.18;98206.16;5127283;27;20465;-79
2021/05/08 08:18:47;;;;;;;3.77;2.27;;;9.00;99.90;;;9.46;89.16;98213.94;5125673;27;20490;-78
2021/05/08 08:21:16;;;;;;;3.90;2.40;;;9.10;99.90;;;9.57;88.83;98216.16;5111461;28;20902;-79
2021/05/08 08:23:44;;;;;;;3.40;2.07;;;9.20;99.90;;;9.69;87.68;98213.91;5121225;28;20469;-78
2021/05/08 08:26:11;;;;;;;6.60;2.70;;;9.30;99.90;;;9.75;86.15;98200.16;5126215;27;20511;-78
2021/05/08 08:28:39;;;;;;;3.60;2.27;;;9.40;99.60;;;9.84;85.02;98198.25;5123713;27;20446;-78
2021/05/08 08:31:07;;;;;;;3.60;2.27;;;9.50;99.10;;;9.98;83.91;98205.31;5135387;27;20484;-78
2021/05/08 08:33:35;;;;;;;4.10;2.30;;;9.60;98.60;;;10.07;82.72;98197.19;5134002;27;20450;-78
2021/05/08 08:36:04;;;;;;;5.20;2.37;;;9.70;98.30;;;10.19;80.56;98199.41;5135184;27;20457;-79
2021/05/08 08:38:32;;;;;;;4.23;2.70;;;9.80;97.60;;;10.28;79.31;98203.53;5133021;27;20905;-78
2021/05/08 08:40:59;;;;;;;2.50;2.00;;;9.90;97.60;;;10.39;79.91;98196.03;5136009;27;20824;-79
2021/05/08 08:43:28;;;;;;;3.33;2.07;;;10.00;96.90;;;10.51;79.41;98193.78;5135519;27;20550;-79
2021/05/08 08:45:57;;;;;;;3.47;1.77;;;10.10;96.80;;;10.64;79.18;98187.91;5134652;27;20438;-78
2021/05/08 08:48:25;;;;;;;7.57;2.00;;;10.20;96.70;;;10.73;77.56;98187.59;5132305;27;20476;-78
2021/05/08 08:50:54;;;;;;;2.60;1.87;;;10.30;96.20;;;10.84;76.86;98183.69;5134185;27;20456;-79
2021/05/08 08:53:22;;;;;;;6.30;1.83;;;10.40;96.00;;;10.94;76.36;98179.78;5126208;27;20450;-79
2021/05/08 08:55:54;;;;;;;4.00;1.87;;;10.50;95.70;;;11.03;71.06;98176.06;5117948;27;20918;-78
2021/05/08 08:58:28;;;;;;;6.13;1.50;;;10.50;93.80;;;11.11;69.05;98178.53;5134989;27;20489;-79
2021/05/08 09:00:57;;;;;;;1.80;1.50;;;10.70;93.60;;;11.23;68.75;98178.84;5122088;27;20917;-78
2021/05/08 09:03:25;;;;;;;3.43;1.73;;;10.80;93.60;;;11.25;65.92;98179.47;5134944;27;20445;-79
2021/05/08 09:05:54;;;;;;;3.10;1.70;;;10.80;92.20;;;11.37;64.70;98175.34;5129367;27;20550;-78
2021/05/08 09:08:22;;;;;;;2.67;1.80;;;10.80;92.30;;;11.45;65.74;98166.56;5126980;27;20441;-79
2021/05/08 09:10:51;;;;;;;4.10;1.73;;;10.90;93.10;;;11.54;65.70;98166.22;5129036;27;20933;-79
2021/05/08 09:13:23;;;;;;;2.63;1.70;;;11.10;92.70;;;11.62;64.18;98165.28;5134989;27;20843;-79
2021/05/08 09:15:52;;;;;;;1.93;1.70;;;11.10;91.80;;;11.69;63.48;98162.72;5134872;27;20437;-79
2021/05/08 09:18:35;;;;;;;1.93;1.60;;;11.10;91.90;;;11.75;64.23;98156.72;5129654;27;20494;-79
2021/05/08 09:21:05;;;;;;;2.70;1.63;;;11.30;92.30;;;11.80;62.46;98155.16;5135121;27;20787;-79
2021/05/08 09:23:34;;;;;;;2.57;1.90;;;11.40;91.40;;;11.94;62.51;98145.59;5133261;27;20481;-79
2021/05/08 09:26:05;;;;;;;6.03;2.10;;;11.50;91.70;;;11.97;59.79;98147.81;5135144;27;20524;-78
2021/05/08 09:28:37;;;;;;;2.00;1.43;;;11.50;90.30;;;12.10;60.31;98151.31;5134882;27;21177;-79
2021/05/08 09:31:07;;;;;;;4.10;1.90;;;11.60;90.80;;;12.19;60.79;98154.56;5134557;27;20449;-79
2021/05/08 09:33:34;;;;;;;1.97;1.47;;;11.70;91.10;;;12.20;59.64;98150.94;5133667;27;20476;-78
2021/05/08 09:36:07;;;;;;;1.87;1.43;;;11.70;90.70;;;12.29;57.72;98135.84;5133205;27;20869;-79
2021/05/08 09:38:37;;;;;;;4.23;1.77;;;11.90;89.80;;;12.34;57.94;98136.91;5132909;27;20485;-78
2021/05/08 09:41:07;;;;;;;3.90;1.67;;;11.90;90.00;;;12.41;59.08;98131.66;5134726;27;20441;-78
2021/05/08 09:43:36;;;;;;;10.27;1.47;;;11.90;90.50;;;12.49;59.91;98121.84;5134628;27;20476;-78
2021/05/08 09:46:05;;;;;;;7.43;1.70;;;12.00;90.50;;;12.54;58.15;98127.28;5132509;27;20446;-78
2021/05/08 09:48:35;;;;;;;2.57;1.70;;;12.10;90.10;;;12.57;55.70;98119.00;5132518;27;20813;-79
2021/05/08 09:51:22;;;;;;;2.70;1.50;;;12.00;88.00;;;12.65;56.27;98122.47;5130588;27;20475;-78
2021/05/08 09:53:51;;;;;;;2.07;1.77;;;12.10;88.50;;;12.70;56.19;98126.13;5130309;27;20452;-78
2021/05/08 09:56:38;;;;;;;2.90;1.70;;;12.20;89.20;;;12.77;56.14;98116.44;5134410;27;20441;-79
2021/05/08 09:59:33;;;;;;;4.97;1.90;;;12.20;88.90;;;12.83;55.72;98102.53;5133176;27;20520;-79
2021/05/08 10:02:19;;;;;;;4.53;1.77;;;12.40;89.20;;;12.87;55.85;98097.69;5121545;27;20458;-79
2021/05/08 10:05:12;;;;;;;2.10;1.40;;;12.40;88.30;;;12.94;56.14;98101.13;5125907;27;20876;-79
2021/05/08 10:07:40;;;;;;;2.80;1.67;;;12.40;88.70;;;12.97;55.84;98084.97;5132691;27;20442;-79
2021/05/08 10:10:09;;;;;;;2.70;1.40;;;12.50;88.10;;;13.04;55.87;98088.41;5134341;27;20437;-79
2021/05/08 10:12:37;;;;;;;2.03;1.40;;;12.60;88.30;;;13.20;57.20;98085.41;5131217;27;20466;-79
2021/05/08 10:15:07;;;;;;;2.83;1.43;;;12.80;90.00;;;13.25;55.93;98082.19;5134068;27;20499;-79
2021/05/08 10:17:35;;;;;;;3.63;1.50;;;12.70;88.30;;;13.30;55.04;98074.50;5134131;27;20488;-79
2021/05/08 10:20:07;;;;;;;5.80;2.00;;;12.80;88.00;;;13.40;55.55;98065.19;5133808;27;20876;-79
2021/05/08 10:22:40;;;;;;;2.23;1.57;;;12.90;88.20;;;13.49;56.01;98068.41;5133624;27;20461;-80
2021/05/08 10:25:11;;;;;;;1.30;1.20;;;13.00;88.50;;;13.55;56.33;98071.03;5132771;27;20453;-80
2021/05/08 10:27:39;;;;;;;3.07;1.50;;;13.10;88.90;;;13.67;55.72;98073.03;5133896;27;20819;-79
2021/05/08 10:30:13;;;;;;;4.13;1.57;;;13.20;87.10;;;13.77;54.37;98063.72;5133664;27;20446;-79